Historyczne dane pomiarowe

Dodano dane terminowe – wersja testowa.

Dane z okresu 1951-2019

Wersja bazy: 1.34 [2019-03-16, lista zmian], aktualizacja planowana na 2019-04-15

Dane meteo z obszaru Polski uzyskane na podstawie danych udostępnionych przez Instytut Meteorologii i Gospodarki Wodnej – Państwowy Instytut Badawczy.

 

Wybierz Datę:    

       

TemperaturaWilgotnośćWiatrCiśnienieOpadyŚniegCzas trwania zjawisk
 Stacja t tx tn tng RH VA  wxwx mslp ppp RRR   cm mm wxwxwxwxwxwxwx
1961-08-14 14.3 17.6 9.7- 80.8- 5.7 2.3---- 0.7------------
1961-08-13 13.1 16.9 10.3- 82.3- 3.3 3.3---- 0.0------------
1961-08-12 15.3 19.3 13.0- 88.3- 4.0 2.7---- 0.0------------
1961-08-11 16.8 20.0 14.2- 95.3- 7.7 1.0---- 0.6------------
1961-08-10 17.1 21.4 10.3- 91.8- 6.3 2.0---- 15.1------------
1961-08-09 17.3 23.0 13.8- 80.0- 5.7 2.0---- 0.0------------
1961-08-08 16.5 20.6 10.2- 79.0- 5.3 2.3---- 1.5------------
1961-08-07 14.8 18.7 12.9- 92.3- 5.0 1.7---- 2.5------------
1961-08-06 18.3 26.0 14.4- 83.8- 4.3 3.7---- 8.4------------
1961-08-05 17.7 22.4 13.3- 85.3- 5.7 2.7---- 2.6------------
1961-08-04 13.6 15.6 9.4- 94.0- 8.0 5.3---- 4.2------------
1961-08-03 13.1 17.5 11.9- 92.8- 5.0 2.7---- 0.0------------
1961-08-02 15.8 20.9 11.0- 84.3- 7.0 2.0---- 0.0------------
1961-08-01 13.9 16.2 12.6- 95.3- 5.3 4.3---- 2.0------------
1961-07-31 13.6 14.4 12.6- 97.8- 8.0 5.0---- 39.3------------
1961-07-30 14.1 17.4 11.4- 91.5- 7.0 2.3---- 5.2------------
1961-07-29 13.5 16.0 10.2- 85.3- 6.7 3.7---- 0.0------------
1961-07-28 13.2 14.8 12.1- 94.8- 7.0 2.0---- 1.6------------
1961-07-27 15.5 19.4 14.5- 89.8- 7.3 4.0---- 1.3------------
1961-07-26 16.5 21.5 13.3- 88.0- 8.0 4.0---- 2.6------------
1961-07-25 14.4 16.5 12.0- 80.0- 7.3 4.3---- 0.2------------
1961-07-24 13.5 16.5 11.7- 83.3- 6.3 4.0---- 0.2------------
1961-07-23 13.7 15.7 12.7- 90.5- 7.3 3.0---- 1.2------------
1961-07-22 14.8 17.6 11.8- 88.8- 8.0 3.7---- 3.0------------
1961-07-21 14.1 17.8 13.2- 95.8- 7.3 2.7---- 10.1------------
1961-07-20 15.8 20.7 12.5- 81.0- 6.3 3.0---- 6.1------------
1961-07-19 16.1 20.8 12.0- 79.3- 5.0 3.0---- 0.0------------
1961-07-18 14.3 16.7 12.0- 93.3- 7.0 2.0---- 1.6------------
1961-07-17 15.0 19.3 10.6- 86.8- 6.3 1.0---- 0.7------------
1961-07-16 14.7 17.6 12.7- 94.0- 7.7 3.0---- 8.1------------
1961-07-15 16.6 22.1 12.0- 75.8- 4.0 2.0---- 1.1------------
1961-07-14 13.1 16.7 11.8- 86.5- 5.7 5.7---- 0.1------------
1961-07-13 19.5 27.2 13.8- 84.8- 6.7 3.7---- 10.8------------
1961-07-12 18.0 23.8 14.3- 87.0- 7.0 2.3---- 0.0------------
1961-07-11 15.9 19.5 10.8- 77.3- 6.0 3.7---- 5.5------------
1961-07-10 12.6 16.2 10.7- 82.5- 5.0 4.0---- 2.7------------
1961-07-09 13.2 14.8 12.2- 96.0- 7.3 2.3---- 15.1------------
1961-07-08 15.4 20.0 11.2- 83.0- 7.3 3.0---- 5.4------------
1961-07-07 12.6 17.0 9.3- 80.8- 5.3 3.7---- 0.1------------
1961-07-06 12.5 15.9 8.4- 83.8- 6.7 2.7---- 11.0------------
1961-07-05 12.1 16.0 10.1- 80.0- 4.7 7.7---- 2.3------------
1961-07-04 15.2 17.3 12.2- 85.3- 7.7 4.0---- 1.7------------
1961-07-03 21.4 31.8 12.4- 72.0- 6.7 4.3---- 0.0------------
1961-07-02 21.8 29.4 7.2- 67.3- 0.0 1.0---- 0.0------------
1961-07-01 18.6 26.5 3.7- 63.0- 0.3 0.7---- 0.0------------
1961-06-30 17.7 23.8 12.2- 64.5- 0.0 2.7---- 0.0------------
1961-06-29 15.8 20.3 11.8- 75.8- 4.0 3.7---- 0.0------------
1961-06-28 14.6 18.4 10.6- 69.5- 4.3 7.3---- 0.0------------
1961-06-27 20.0 25.0 17.1- 80.0- 6.7 4.0---- 0.9------------
1961-06-26 21.3 27.4 13.7- 54.8- 0.7 2.0---- 0.0------------
1961-06-25 21.2 26.1 14.4- 62.3- 2.0 3.7---- 0.0------------
1961-06-24 17.8 22.4 13.1- 62.8- 7.0 5.3---- 0.0------------
1961-06-23 17.0 20.4 9.4- 68.5- 5.3 4.3---- 0.0------------
1961-06-22 16.2 20.9 8.2- 66.3- 3.3 1.7---- 0.0------------
1961-06-21 13.4 19.4 9.3- 75.3- 4.3 3.0---- 4.6------------
1961-06-20 14.0 18.7 9.7- 67.0- 2.3 3.7---- 0.0------------
1961-06-19 14.4 18.0 11.4- 69.8- 3.0 4.7---- 0.0------------
1961-06-18 19.3 25.4 16.3- 78.0- 5.0 5.3---- 0.9------------
1961-06-17 17.7 22.3 10.4- 77.8- 4.0 3.0---- 0.0------------
1961-06-16 12.8 17.4 11.3- 80.0- 5.3 4.7---- 0.0------------
324.0 ms

 

Źródłem pochodzenia danych jest Instytut Meteorologii i Gospodarki Wodnej – Państwowy Instytut Badawczy. Dane Instytutu Meteorologii i Gospodarki Wodnej – Państwowego Instytutu Badawczego zostały przetworzone.

Dane źródłowe można odnaleźć na stronie https://dane.imgw.pl